Latest Weather Observations for Walpole North

IDW60801

Issued at 7:35 pm WST Friday 29 August 2014 (issued every 30 minutes, with the page automatically refreshed every 10 minutes)

About weather observations | Map of weather stations | Latest weather observations for WA | Other Formats
Station Details ID: 009998 Name: NORTH WALPOLE Lat: -34.95 Lon: 116.72 Height: 73.0 m
Data from the previous 72 hours. | See also: Recent months at Walpole North
Date/Time
WST
Temp
°C
App
Temp
°C
Dew
Point
Rel
Hum
%
Delta-T
°C
Wind Press
QNH
hPa
Press
MSL
hPa
Rain
since 9 am
mm
Dir
 
Spd
km/h
Gust
km/h
Spd
kts
Gust
kts
29/07:30pm 12.6 13.1 11.5 93 0.6 NNW 0 0 0 0 1011.5 1011.5 3.8
29/07:00pm 12.6 13.0 11.3 92 0.7 NNW 0 0 0 0 1011.2 1011.2 3.8
29/06:30pm 13.0 13.4 11.4 90 0.8 CALM 0 0 0 0 1011.2 1011.2 3.8
29/06:00pm 13.4 13.9 11.6 89 1.0 CALM 0 0 0 0 1010.8 1010.8 3.8
29/05:30pm 13.5 13.9 11.4 87 1.1 CALM 0 6 0 3 1010.6 1010.6 3.8
29/05:00pm 13.7 12.5 11.6 87 1.1 NNW 9 13 5 7 1010.6 1010.6 3.8
29/04:30pm 14.0 12.4 11.7 86 1.2 NNW 11 17 6 9 1010.4 1010.4 3.8
29/04:00pm 14.0 12.4 11.7 86 1.2 NNW 11 15 6 8 1010.2 1010.2 3.8
29/03:30pm 14.0 12.2 12.0 88 1.1 NW 13 17 7 9 1010.2 1010.2 3.8
29/03:00pm 13.2 11.1 11.1 87 1.1 NW 13 17 7 9 1010.3 1010.3 3.6
29/02:30pm 13.6 11.9 10.0 79 1.9 W 9 13 5 7 1010.3 1010.3 3.4
29/02:00pm 15.0 13.2 9.6 70 2.8 WSW 9 15 5 8 1010.0 1010.0 2.2
29/01:30pm 15.4 12.8 10.6 73 2.5 W 15 24 8 13 1010.0 1010.0 2.2
29/01:00pm 15.7 14.4 12.6 82 1.7 WSW 11 20 6 11 1009.5 1009.5 2.2
29/12:30pm 15.2 14.7 13.7 91 0.8 W 9 15 5 8 1009.7 1009.7 2.2
29/12:00pm 14.4 13.9 13.8 96 0.3 WNW 9 15 5 8 1010.5 1010.5 2.2
29/11:30am 13.5 13.2 13.3 99 0.1 W 7 11 4 6 1010.1 1010.1 2.2
29/11:00am 13.2 10.5 13.0 99 0.1 WSW 19 28 10 15 1010.3 1010.3 2.2
29/10:30am 14.2 15.5 14.0 99 0.1 CALM 0 0 0 0 1010.2 1010.2 1.6
29/10:00am 13.9 15.1 13.7 99 0.1 CALM 0 0 0 0 1009.6 1009.6 1.2
29/09:30am 13.7 14.8 13.5 99 0.1 CALM 0 0 0 0 1010.1 1010.1 0.8
29/09:00am 13.5 14.5 13.3 99 0.1 CALM 0 0 0 0 1009.7 1009.7 42.0
29/08:30am 13.5 14.5 13.3 99 0.1 CALM 0 0 0 0 1009.4 1009.4 38.4
29/08:00am 13.4 14.4 13.2 99 0.1 CALM 0 0 0 0 1009.2 1009.2 35.2
29/07:30am 13.4 14.4 13.1 98 0.2 CALM 0 0 0 0 1008.9 1008.9 34.0
29/07:00am 13.4 14.3 12.9 97 0.3 CALM 0 0 0 0 1008.7 1008.7 33.2
29/06:30am 13.6 13.4 13.0 96 0.3 W 6 15 3 8 1008.5 1008.5 31.8
29/06:00am 14.9 13.7 14.1 95 0.5 W 13 17 7 9 1008.2 1008.2 29.0
29/05:30am 15.0 12.2 14.4 96 0.3 NW 22 30 12 16 1007.6 1007.6 29.0
29/05:00am 15.0 13.2 14.4 96 0.3 NNW 17 24 9 13 1007.6 1007.6 29.0
29/04:30am 14.9 12.7 14.4 97 0.3 NNW 19 26 10 14 1007.6 1007.6 29.0
29/04:00am 14.7 12.5 14.4 98 0.2 NNW 19 26 10 14 1007.8 1007.8 28.8
29/03:30am 14.2 12.1 13.7 97 0.3 NW 17 28 9 15 1007.7 1007.7 28.6
29/03:00am 14.4 13.8 13.4 94 0.6 W 9 15 5 8 1008.0 1008.0 25.4
29/02:30am 14.9 12.4 13.4 91 0.8 NW 19 26 10 14 1008.3 1008.3 22.6
29/02:00am 15.1 11.1 13.0 87 1.2 NW 26 35 14 19 1007.9 1007.9 22.0
29/01:30am 15.4 11.4 12.9 85 1.4 NW 26 39 14 21 1007.7 1007.7 21.6
29/01:02am 15.3 10.8 12.6 84 1.5 NW 28 48 15 26 1007.8 1007.8 21.6
29/01:00am 15.2 11.0 12.5 84 1.5 NW 26 39 14 21 1007.8 1007.8 21.6
29/12:30am 15.2 10.9 12.1 82 1.7 NW 26 37 14 20 1008.2 1008.2 21.6
29/12:00am 15.4 11.2 12.5 83 1.6 NW 26 43 14 23 1008.3 1008.3 21.6
 
Date/Time
WST
Temp
°C
App
Temp
°C
Dew
Point
Rel
Hum
%
Delta-T
°C
Wind Press
QNH
hPa
Press
MSL
hPa
Rain
since 9 am
mm
Dir
 
Spd
km/h
Gust
km/h
Spd
kts
Gust
kts
28/11:30pm 14.9 11.3 13.1 89 1.0 NW 24 37 13 20 1008.2 1008.2 21.6
28/11:00pm 14.6 11.1 13.3 92 0.7 NW 24 33 13 18 1008.6 1008.6 21.6
28/10:30pm 14.4 10.5 13.3 93 0.6 NW 26 35 14 19 1009.4 1009.4 21.6
28/10:00pm 14.4 10.2 13.4 94 0.6 NW 28 39 15 21 1009.5 1009.5 21.2
28/09:30pm 14.5 9.6 13.7 95 0.4 NW 32 43 17 23 1010.2 1010.2 20.4
28/09:00pm 14.9 10.1 14.1 95 0.5 NW 32 52 17 28 1010.5 1010.5 19.0
28/08:32pm 15.3 10.8 13.8 91 0.8 WNW 30 50 16 27 1010.4 1010.4 16.8
28/08:30pm 15.2 12.2 13.7 91 0.8 WNW 22 39 12 21 1010.3 1010.3 15.8
28/08:00pm 16.3 14.4 14.3 88 1.1 NNW 17 30 9 16 1009.6 1009.6 12.2
28/07:30pm 16.2 14.7 14.2 88 1.1 N 15 35 8 19 1009.6 1009.6 12.2
28/07:00pm 16.5 13.7 14.2 86 1.3 NW 22 32 12 17 1009.7 1009.7 12.2
28/06:30pm 17.1 14.3 14.2 83 1.7 NNW 22 33 12 18 1009.3 1009.3 11.6
28/06:00pm 16.7 14.4 14.0 84 1.5 NW 19 28 10 15 1009.2 1009.2 11.6
28/05:30pm 16.8 14.5 14.1 84 1.5 NNW 19 30 10 16 1009.2 1009.2 11.6
28/05:00pm 16.7 14.5 14.3 86 1.4 NNW 19 35 10 19 1009.3 1009.3 11.6
28/04:30pm 16.4 13.9 14.1 86 1.3 NNW 20 30 11 16 1009.3 1009.3 11.6
28/04:00pm 16.3 13.5 14.3 88 1.1 NW 22 32 12 17 1009.4 1009.4 11.6
28/03:32pm 17.0 13.1 14.5 85 1.4 NNW 28 50 15 27 1009.4 1009.4 11.4
28/03:30pm 17.2 13.8 14.7 85 1.4 NNW 26 50 14 27 1009.5 1009.5 11.4
28/03:12pm 18.0 14.5 15.6 86 1.4 NW 28 46 15 25 1009.2 1009.2 11.4
28/03:00pm 17.6 16.0 16.1 91 0.9 NW 19 26 10 14 1009.2 1009.2 11.4
28/02:30pm 17.3 17.1 16.7 96 0.4 NW 13 20 7 11 1009.4 1009.4 11.4
28/02:00pm 16.5 15.9 15.7 95 0.5 WNW 13 20 7 11 1009.8 1009.8 11.4
28/01:30pm 16.0 15.0 14.5 91 0.9 NW 13 28 7 15 1010.1 1010.1 7.0
28/01:00pm 17.0 14.7 14.6 86 1.4 NW 20 32 11 17 1010.1 1010.1 1.8
28/12:30pm 18.8 15.6 13.0 69 3.3 NW 22 33 12 18 1010.1 1010.1 0.0
28/12:00pm 19.0 16.2 13.2 69 3.3 NNW 20 43 11 23 1010.2 1010.2 0.0
28/11:30am 18.0 14.2 12.5 70 3.1 NNW 24 39 13 21 1010.6 1010.6 0.0
28/11:00am 18.0 15.0 12.5 70 3.1 NNW 20 37 11 20 1011.0 1011.0 0.0
28/10:30am 17.2 13.6 11.9 71 2.9 NNW 22 39 12 21 1011.4 1011.4 0.0
28/10:00am 17.0 13.3 11.5 70 3.0 NNW 22 37 12 20 1011.8 1011.8 0.0
28/09:30am 16.2 12.9 10.9 71 2.8 NNW 19 30 10 16 1012.1 1012.1 0.0
28/09:00am 16.2 12.2 10.3 68 3.1 NNW 22 39 12 21 1012.3 1012.3 0.2
28/08:30am 16.3 11.5 10.2 67 3.2 NNW 26 48 14 26 1012.5 1012.5 0.2
28/08:00am 16.0 11.9 10.1 68 3.1 N 22 33 12 18 1012.2 1012.2 0.2
28/07:30am 15.4 11.8 9.7 69 3.0 N 19 33 10 18 1012.2 1012.2 0.2
28/07:00am 15.2 11.6 9.8 70 2.8 NNW 19 32 10 17 1012.1 1012.1 0.2
28/06:30am 15.0 11.5 10.2 73 2.5 N 19 32 10 17 1011.9 1011.9 0.2
28/06:00am 14.5 11.1 10.5 77 2.1 N 19 30 10 16 1011.9 1011.9 0.2
28/05:30am 13.8 11.2 10.8 82 1.6 N 15 33 8 18 1012.0 1012.0 0.2
28/05:00am 14.0 11.4 10.6 80 1.8 N 15 26 8 14 1012.6 1012.6 0.0
28/04:30am 14.4 10.8 10.6 78 2.0 NNW 20 30 11 16 1012.4 1012.4 0.0
28/04:00am 14.3 11.6 10.5 78 2.0 NNW 15 32 8 17 1012.4 1012.4 0.0
28/03:30am 14.3 10.9 10.7 79 1.9 N 19 28 10 15 1012.5 1012.5 0.0
28/03:00am 14.0 11.0 10.6 80 1.8 N 17 28 9 15 1012.9 1012.9 0.0
28/02:30am 13.9 11.6 10.5 80 1.8 N 13 20 7 11 1013.2 1013.2 0.0
28/02:00am 14.2 11.6 10.6 79 1.9 NNW 15 26 8 14 1013.7 1013.7 0.0
28/01:30am 14.0 10.9 10.4 79 1.9 NNW 17 32 9 17 1014.0 1014.0 0.0
28/01:00am 14.0 11.6 10.2 78 2.0 NNW 13 24 7 13 1014.5 1014.5 0.0
28/12:30am 13.9 10.3 9.9 77 2.1 NW 19 28 10 15 1015.0 1015.0 0.0
28/12:00am 13.9 10.1 9.7 76 2.2 NW 20 30 11 16 1015.4 1015.4 0.0
 
Date/Time
WST
Temp
°C
App
Temp
°C
Dew
Point
Rel
Hum
%
Delta-T
°C
Wind Press
QNH
hPa
Press
MSL
hPa
Rain
since 9 am
mm
Dir
 
Spd
km/h
Gust
km/h
Spd
kts
Gust
kts
27/11:30pm 14.2 9.6 9.6 74 2.4 NW 24 32 13 17 1015.6 1015.6 0.0
27/11:00pm 14.3 9.3 9.7 74 2.4 NW 26 37 14 20 1016.0 1016.0 0.0
27/10:30pm 14.5 8.4 9.7 73 2.5 NW 32 41 17 22 1016.1 1016.1 0.0
27/10:00pm 14.6 9.7 9.8 73 2.5 NW 26 35 14 19 1016.2 1016.2 0.0
27/09:30pm 14.5 10.6 9.3 71 2.7 NW 20 32 11 17 1016.2 1016.2 0.0
27/09:00pm 14.5 11.1 9.1 70 2.8 NNW 17 30 9 16 1016.4 1016.4 0.0
27/08:30pm 14.7 12.0 8.9 68 3.0 N 13 20 7 11 1016.4 1016.4 0.0
27/08:00pm 15.2 12.1 8.9 66 3.2 N 15 26 8 14 1016.4 1016.4 0.0
27/07:30pm 14.9 12.9 8.6 66 3.2 N 9 15 5 8 1016.4 1016.4 0.0
27/07:00pm 15.2 12.4 8.7 65 3.3 NNW 13 20 7 11 1016.6 1016.6 0.0
27/06:30pm 14.7 13.2 9.3 70 2.8 N 7 11 4 6 1016.4 1016.4 0.0
27/06:00pm 15.0 13.0 10.2 73 2.5 NNW 11 15 6 8 1016.7 1016.7 0.0
27/05:30pm 14.1 12.9 9.5 74 2.4 NW 6 7 3 4 1016.8 1016.8 0.0
27/05:00pm 15.5 13.8 9.8 69 3.0 NNW 9 11 5 6 1016.8 1016.8 0.0
27/04:30pm 16.6 15.0 10.2 66 3.4 NNW 9 13 5 7 1016.7 1016.7 0.0
27/04:00pm 16.4 13.9 9.6 64 3.6 NW 13 20 7 11 1016.7 1016.7 0.0
27/03:30pm 17.5 14.9 10.6 64 3.7 WNW 15 26 8 14 1016.6 1016.6 0.0
27/03:00pm 17.4 14.6 10.1 62 3.9 WNW 15 22 8 12 1016.9 1016.9 0.0
27/02:30pm 16.5 13.3 9.9 65 3.5 NW 17 28 9 15 1016.9 1016.9 0.0
27/02:00pm 16.8 14.1 10.2 65 3.5 NW 15 30 8 16 1016.5 1016.5 0.0
27/01:30pm 16.9 14.3 10.7 67 3.3 N 15 22 8 12 1016.5 1016.5 0.0
27/01:00pm 17.0 13.9 11.5 70 3.0 NNW 19 28 10 15 1017.3 1017.3 0.0
27/12:30pm 16.3 13.8 11.2 72 2.7 N 15 30 8 16 1018.1 1018.1 0.0
27/12:00pm 15.5 13.0 10.9 74 2.4 NNW 15 20 8 11 1019.0 1019.1 0.0
27/11:30am 14.4 12.2 10.8 79 1.9 N 13 20 7 11 1019.7 1019.8 0.0
27/11:00am 13.4 10.9 9.8 79 1.8 N 13 20 7 11 1020.2 1020.2 0.0
27/10:30am 13.0 10.9 9.6 80 1.7 N 11 24 6 13 1020.4 1020.4 0.0
27/10:00am 13.0 11.3 10.0 82 1.5 N 9 20 5 11 1020.6 1020.6 0.0
27/09:30am 12.7 9.5 10.1 84 1.3 NE 17 26 9 14 1020.5 1020.5 0.0
27/09:00am 12.0 8.1 9.4 84 1.3 NE 20 30 11 16 1020.7 1020.7 0.2
27/08:30am 11.9 8.0 9.3 84 1.3 NE 20 32 11 17 1020.8 1020.8 0.2
27/08:00am 11.6 8.2 9.0 84 1.3 NE 17 28 9 15 1020.9 1020.9 0.2
27/07:30am 11.4 7.9 8.8 84 1.3 NE 17 26 9 14 1021.0 1021.0 0.2
27/07:00am 11.0 7.4 8.2 83 1.4 NE 17 26 9 14 1020.9 1020.9 0.2
27/06:30am 10.7 6.9 7.6 81 1.5 NE 17 24 9 13 1020.9 1020.9 0.2
27/06:00am 10.8 7.0 7.5 80 1.6 NE 17 26 9 14 1021.2 1021.2 0.2
27/05:30am 10.3 7.0 6.6 78 1.7 NNE 13 20 7 11 1021.4 1021.4 0.2
27/05:00am 10.3 7.4 6.5 77 1.8 NNE 11 19 6 10 1021.5 1021.5 0.2
27/04:30am 10.2 6.5 6.2 76 1.9 NE 15 22 8 12 1021.5 1021.5 0.2
27/04:00am 10.1 6.7 5.9 75 1.9 NE 13 19 7 10 1021.6 1021.6 0.2
27/03:30am 10.0 6.6 5.8 75 1.9 NE 13 20 7 11 1022.0 1022.0 0.2
27/03:00am 9.9 6.9 5.9 76 1.8 NE 11 19 6 10 1022.3 1022.3 0.2
27/02:30am 10.0 7.5 6.5 79 1.6 NE 9 13 5 7 1022.7 1022.7 0.2
27/02:00am 9.2 6.5 5.8 79 1.5 NE 9 13 5 7 1022.9 1022.9 0.2
27/01:30am 9.3 6.5 7.1 86 1.0 NE 11 17 6 9 1022.9 1022.9 0.2
27/01:00am 8.0 6.8 6.5 90 0.7 NE 2 9 1 5 1023.2 1023.2 0.2
27/12:30am 7.8 7.0 6.3 90 0.7 CALM 0 0 0 0 1023.5 1023.5 0.2
27/12:00am 7.6 6.7 6.1 90 0.7 CALM 0 0 0 0 1023.7 1023.7 0.2
 
Date/Time
WST
Temp
°C
App
Temp
°C
Dew
Point
Rel
Hum
%
Delta-T
°C
Wind Press
QNH
hPa
Press
MSL
hPa
Rain
since 9 am
mm
Dir
 
Spd
km/h
Gust
km/h
Spd
kts
Gust
kts
26/11:30pm 7.1 6.1 5.6 90 0.7 CALM 0 0 0 0 1023.9 1023.9 0.2
26/11:00pm 7.2 4.9 5.5 89 0.8 NE 7 11 4 6 1023.9 1023.9 0.2
26/10:30pm 7.0 5.9 5.2 88 0.8 CALM 0 0 0 0 1024.1 1024.1 0.2
26/10:00pm 7.3 6.2 5.3 87 0.9 CALM 0 0 0 0 1024.2 1024.2 0.2
26/09:30pm 7.2 6.1 5.0 86 1.0 CALM 0 0 0 0 1024.4 1024.4 0.2
26/09:00pm 7.4 6.2 4.4 81 1.3 CALM 0 0 0 0 1024.6 1024.6 0.2
26/08:30pm 8.1 6.9 4.5 78 1.6 CALM 0 0 0 0 1024.6 1024.6 0.2
26/08:00pm 9.0 7.8 4.8 75 1.9 CALM 0 0 0 0 1024.4 1024.4 0.2

Other Formats:

Comma delimited format used in spreadsheet applications
http://www.bom.gov.au/fwo/IDW60801/IDW60801.95647.axf

JavaScript Object Notation format (JSON) in row-major order
http://www.bom.gov.au/fwo/IDW60801/IDW60801.95647.json